Airfield :







YOU CAN JOIN US ON...

 
LOGIN :

Register | Disclaimer

   EN    FR    IT 

 









Legend :    VFR   Marginal VFR   IFR   Intensive IFR   Very Intensive IFR
Visi :
Ceiling :
>= 8 km
>= 3000ft
5 to 8 km
1000 to 3000 ft
1500m to 5 km
500 to 1000 ft
800 to 1500m
200 to 500 ft
< 800m
< 200 ft
Symbols :   Thunderstorms  Fog  Heavy snow  Heavy precipitations  Wind > 20 kt






- Airport Elevation : 70 ft


KIWI - Wiscasset

CURRENT METAR :
  • 092009Z AUTO 17008KT 2SM -RA BR OVC004 09/08 A2997 RMK AO2 P0002 T00890083

EXPIRED METARs :
  • 091953Z AUTO 16008KT 120V200 2 1/2SM RA BR OVC004 09/08 A2998 RMK AO2 VIS 2V3 SLP153 P0005 T00890078
  • 091929Z AUTO VRB03KT 2SM RA BR OVC004 08/07 A3001 RMK AO2 P0003 T00780072
  • 091920Z AUTO 10005KT 1 1/2SM -RA BR OVC004 07/07 A3001 RMK AO2 P0002 T00720067
  • 091916Z AUTO 11004KT 3/4SM -RA BR OVC004 07/06 A3002 RMK AO2 P0002 T00670061
  • 091853Z AUTO 06003KT 1/4SM RA FG VV005 05/04 A3004 RMK AO2 PRESFR SLP173 P0003 T00500039
  • 091810Z AUTO 00000KT 3/4SM -RA BR OVC002 05/04 A3009 RMK AO2 P0001 T00500044
  • 091803Z AUTO 00000KT 1 3/4SM -RA BR OVC003 06/04 A3009 RMK AO2 P0001 T00560044
  • 091753Z AUTO 07003KT 1SM -RA BR OVC003 06/04 A3010 RMK AO2 SLP193 P0003 60005 T00560044 10056 20039 58041
  • 091735Z AUTO 08003KT 3/4SM -RA BR VV004 05/04 A3012 RMK AO2 P0002 T00500044
  • 091727Z AUTO 00000KT 1SM -RA BR VV004 05/04 A3013 RMK AO2 P0002 T00500044

TAF N/A



MET'MAP, your aeronautical weather chart ! - Copyright ORBIFLY December 2007 - Disclaimer

ORBIFLY MET'MAP TEAM :

Programming & Development : Alexandra Zaïnal
Concept & original design : Baudouin d'Aumeries
Assistance for programming : Marc-Olivier Méhu
Technical & hardware support : Manuel Goepfert

Contact : metmap@orbifly.com




SOURCES & CREDITS :

   NOAA